MDT,Max TemperatureF,Mean TemperatureF,Min TemperatureF,Max Dew PointF,MeanDew PointF,Min DewpointF,Max Humidity, Mean Humidity, Min Humidity, Max Sea Level PressureIn, Mean Sea Level PressureIn, Min Sea Level PressureIn, Max VisibilityMiles, Mean VisibilityMiles, Min VisibilityMiles, Max Wind SpeedMPH, Mean Wind SpeedMPH, Max Gust SpeedMPH,PrecipitationIn, CloudCover, Events, WindDirDegrees
2012-9-1,85,66,47,47,36,14,42,26,9,29.86,29.72,29.66,10,10,10,23,8,29,T,1,,281
2012-9-2,82,61,40,27,23,20,45,29,12,29.91,29.87,29.83,10,10,10,31,15,43,0.00,0,,244
2012-9-3,80,63,46,34,28,25,45,30,15,29.99,29.93,29.88,10,10,10,22,10,28,0.00,0,,251
2012-9-4,68,56,43,49,39,30,93,61,29,30.19,30.05,29.90,10,9,2,26,9,33,0.18,4,Rain,292
2012-9-5,77,58,38,44,39,34,92,58,23,30.11,29.99,29.88,10,10,10,22,7,28,T,2,,339
2012-9-6,65,54,43,52,46,42,93,73,52,30.21,30.13,30.04,10,10,10,16,7,20,T,4,Rain,242
2012-9-7,79,59,38,45,38,31,100,59,18,30.28,30.23,30.17,10,10,10,16,7,20,0.00,0,,255
2012-9-8,86,63,40,46,37,31,79,47,14,30.28,30.14,29.89,10,10,10,25,8,33,0.00,0,,106
2012-9-9,93,72,51,37,31,26,44,27,10,29.90,29.75,29.60,10,10,10,31,7,43,T,0,,252
2012-9-10,84,67,50,39,31,17,59,34,8,29.83,29.67,29.58,10,10,7,38,19,47,0.00,0,,270
2012-9-11,66,51,36,32,23,12,62,38,13,30.17,30.00,29.85,10,10,10,33,13,40,0.00,2,,263
2012-9-12,65,51,36,23,19,17,48,32,16,30.38,30.29,30.18,10,10,10,14,7,17,0.00,2,,249
2012-9-13,79,59,39,39,27,19,44,31,17,30.38,30.31,30.25,10,10,10,18,8,23,0.00,0,,217
2012-9-14,90,65,40,35,27,16,70,38,6,30.22,30.05,29.93,10,10,10,23,8,30,0.00,0,,277
2012-9-15,78,62,45,38,28,24,42,30,18,30.06,30.02,29.94,10,10,10,16,6,18,0.00,0,,240
2012-9-16,68,57,46,34,30,27,50,38,26,30.26,30.20,30.05,10,10,10,24,11,30,0.00,2,,68
2012-9-17,75,54,33,31,29,26,75,48,20,30.23,30.12,30.00,10,10,10,18,6,23,0.00,0,,283
2012-9-18,90,67,43,33,29,20,54,31,8,30.04,29.92,29.76,10,10,10,25,12,32,0.00,0,,262
2012-9-19,75,57,39,37,31,28,70,45,19,30.19,30.10,30.02,10,10,10,9,3,13,0.00,0,,225
2012-9-20,79,61,42,35,32,30,62,41,19,30.15,30.08,30.04,10,10,10,21,9,26,0.00,0,,271
2012-9-21,80,59,37,41,35,30,76,48,20,30.18,30.12,30.06,10,10,10,13,4,16,0.00,0,,139
2012-9-22,84,64,44,36,35,33,70,43,16,30.15,30.08,29.99,10,10,10,28,13,33,0.00,0,,77
2012-9-23,81,60,39,35,32,30,70,44,18,30.12,30.06,30.01,10,10,10,12,3,14,0.00,0,Rain,54
2012-9-24,81,58,35,40,32,28,75,46,17,30.04,29.96,29.87,10,10,9,13,4,14,0.00,0,,237
2012-9-25,81,59,36,38,33,28,70,44,18,29.93,29.89,29.86,10,10,10,12,5,,0.00,0,,246
2012-9-26,66,55,43,52,47,41,89,71,52,30.14,30.09,29.99,10,10,8,16,7,21,0.01,3,Rain,290
2012-9-27,75,55,34,45,39,34,100,64,27,30.21,30.14,30.06,10,6,0,10,3,13,0.00,2,Fog,291
2012-9-28,81,59,37,43,39,35,92,58,23,30.05,29.94,29.84,10,10,10,12,3,13,0.00,0,,44
2012-9-29,81,62,42,38,36,34,66,44,21,29.99,29.91,29.84,10,10,10,24,10,29,0.00,0,,255
2012-9-30,69,56,43,41,37,32,71,50,28,30.31,30.16,29.99,10,10,10,16,8,24,0.00,0,,21